Time;durP1;ratioP1;P1;durP2;ratioP2;P2;SDS_P1;SDS_P2;PMS_P1;PMS_P2;Temp;Humidity;BMP_temperature;BMP_pressure;BME280_temperature;BME280_humidity;BME280_pressure;Samples;Min_cycle;Max_cycle;Signal;HPM_P1;HPM_P2
2024/02/18 00:00:29;;;;;;;;;;;;;;;3.10;100.00;101289.98;107991;1256;61965;-77
2024/02/18 00:03:41;;;;;;;;;;;;;;;3.10;100.00;101285.71;107934;1256;61138;-77
2024/02/18 00:06:08;;;;;;;;;;;;;;;3.08;100.00;101279.64;108009;1256;74844;-76
2024/02/18 00:08:35;;;;;;;;;;;;;;;3.08;100.00;101275.54;108028;1256;72627;-78
2024/02/18 00:11:02;;;;;;;;;;;;;;;3.07;100.00;101276.02;108090;1259;71221;-77
2024/02/18 00:13:29;;;;;;;;;;;;;;;3.08;100.00;101280.13;108076;1256;61661;-76
2024/02/18 00:15:56;;;;;;;;;;;;;;;3.10;100.00;101273.52;108028;1257;61250;-76
2024/02/18 00:18:22;;;;;;;;;;;;;;;3.13;100.00;101272.46;108112;1255;73228;-76
2024/02/18 00:20:52;;;;;;;;;;;;;;;3.16;100.00;101271.35;107803;1256;70259;-76
2024/02/18 00:23:19;;;;;;;;;;;;;;;3.18;100.00;101277.45;107986;1256;72422;-77
2024/02/18 00:25:47;;;;;;;;;;;;;;;3.19;100.00;101267.99;107960;1257;61139;-77
2024/02/18 00:28:13;;;;;;;;;;;;;;;3.21;100.00;101271.30;107972;1256;61137;-77
2024/02/18 00:30:42;;;;;;;;;;;;;;;3.23;100.00;101274.05;107810;1256;74959;-77
2024/02/18 00:33:09;;;;;;;;;;;;;;;3.24;100.00;101275.15;107870;1256;72620;-76
2024/02/18 00:35:36;;;;;;;;;;;;;;;3.23;100.00;101277.24;107951;1258;72589;-77
2024/02/18 00:38:02;;;;;;;;;;;;;;;3.21;100.00;101276.41;107702;1256;61206;-76
2024/02/18 00:40:29;;;;;;;;;;;;;;;3.18;100.00;101278.20;107995;1257;61141;-77
2024/02/18 00:42:56;;;;;;;;;;;;;;;3.16;100.00;101278.77;107828;1256;73563;-77
2024/02/18 00:45:23;;;;;;;;;;;;;;;3.11;100.00;101279.10;107921;1256;72599;-76
2024/02/18 00:47:50;;;;;;;;;;;;;;;3.04;100.00;101279.85;107954;1256;72687;-77
2024/02/18 00:50:16;;;;;;;;;;;;;;;3.02;100.00;101280.27;107930;1256;61074;-76
2024/02/18 00:52:43;;;;;;;;;;;;;;;3.00;100.00;101272.54;107931;1256;61170;-78
2024/02/18 00:55:11;;;;;;;;;;;;;;;2.97;100.00;101265.27;107929;1256;74723;-77
2024/02/18 00:57:38;;;;;;;;;;;;;;;3.07;100.00;101264.08;108153;1256;72661;-78
2024/02/18 01:00:07;;;;;;;;;;;;;;;3.12;100.00;101263.34;107996;1256;71486;-77
2024/02/18 01:02:36;;;;;;;;;;;;;;;3.48;100.00;101263.66;107887;1257;61259;-78
2024/02/18 01:05:03;;;;;;;;;;;;;;;3.64;100.00;101260.52;107815;1257;60091;-77
2024/02/18 01:07:30;;;;;;;;;;;;;;;3.72;100.00;101264.23;107947;1260;74968;-75
2024/02/18 01:09:57;;;;;;;;;;;;;;;3.78;100.00;101263.85;107982;1256;71709;-77
2024/02/18 01:12:24;;;;;;;;;;;;;;;3.80;100.00;101263.62;107954;1256;72505;-77
2024/02/18 01:14:50;;;;;;;;;;;;;;;3.83;100.00;101266.04;108010;1256;61150;-77
2024/02/18 01:17:17;;;;;;;;;;;;;;;3.85;100.00;101264.17;108017;1256;61222;-77
2024/02/18 01:19:44;;;;;;;;;;;;;;;3.87;100.00;101266.88;108065;1256;73411;-75
2024/02/18 01:22:11;;;;;;;;;;;;;;;3.89;100.00;101261.20;107970;1256;74318;-78
2024/02/18 01:24:38;;;;;;;;;;;;;;;3.90;100.00;101261.73;108005;1257;72547;-76
2024/02/18 01:27:05;;;;;;;;;;;;;;;3.94;100.00;101251.23;107709;1256;61265;-77
2024/02/18 01:29:31;;;;;;;;;;;;;;;3.99;100.00;101254.95;107952;1256;61135;-77
2024/02/18 01:31:58;;;;;;;;;;;;;;;4.02;100.00;101257.03;107891;1257;73339;-77
2024/02/18 01:34:25;;;;;;;;;;;;;;;4.06;100.00;101253.71;107965;1256;71688;-79
2024/02/18 01:36:52;;;;;;;;;;;;;;;4.11;100.00;101255.00;107778;1258;71091;-77
2024/02/18 01:39:19;;;;;;;;;;;;;;;4.16;100.00;101252.91;107930;1256;61145;-78
2024/02/18 01:41:46;;;;;;;;;;;;;;;4.15;100.00;101253.40;107866;1259;61133;-78
2024/02/18 01:44:13;;;;;;;;;;;;;;;4.15;100.00;101250.83;107969;1256;74672;-77
2024/02/18 01:46:39;;;;;;;;;;;;;;;4.18;100.00;101247.09;107976;1256;72605;-78
2024/02/18 01:49:06;;;;;;;;;;;;;;;4.23;100.00;101241.80;107955;1260;72113;-79
2024/02/18 01:51:33;;;;;;;;;;;;;;;4.32;100.00;101244.77;107958;1258;61347;-78
2024/02/18 01:54:00;;;;;;;;;;;;;;;4.39;100.00;101246.44;108050;1256;61253;-79
2024/02/18 01:56:28;;;;;;;;;;;;;;;4.43;100.00;101248.16;108009;1256;74779;-76
2024/02/18 01:58:55;;;;;;;;;;;;;;;4.44;100.00;101239.95;107999;1257;72517;-78
2024/02/18 02:01:21;;;;;;;;;;;;;;;4.44;100.00;101236.67;107995;1257;72480;-79
2024/02/18 02:03:49;;;;;;;;;;;;;;;4.45;100.00;101241.61;107967;1256;61004;-78
2024/02/18 02:06:16;;;;;;;;;;;;;;;4.50;100.00;101239.59;107956;1256;61045;-77
2024/02/18 02:08:44;;;;;;;;;;;;;;;4.54;100.00;101242.45;107914;1256;75131;-76
2024/02/18 02:11:11;;;;;;;;;;;;;;;4.55;100.00;101242.57;107994;1257;71555;-76
2024/02/18 02:13:38;;;;;;;;;;;;;;;4.59;100.00;101243.71;107929;1256;72651;-78
2024/02/18 02:16:05;;;;;;;;;;;;;;;4.64;100.00;101241.08;107757;1256;62191;-77
2024/02/18 02:18:33;;;;;;;;;;;;;;;4.68;100.00;101243.85;108000;1256;61073;-77
2024/02/18 02:21:00;;;;;;;;;;;;;;;4.70;100.00;101238.48;108060;1256;74442;-78
2024/02/18 02:23:26;;;;;;;;;;;;;;;4.75;100.00;101241.27;107975;1256;72512;-78
2024/02/18 02:25:53;;;;;;;;;;;;;;;4.78;100.00;101242.20;107974;1260;72419;-77
2024/02/18 02:28:24;;;;;;;;;;;;;;;4.80;100.00;101242.45;107821;1256;61837;-77
2024/02/18 02:30:51;;;;;;;;;;;;;;;4.80;100.00;101241.77;107983;1256;61218;-79
2024/02/18 02:33:18;;;;;;;;;;;;;;;4.81;100.00;101244.33;107927;1256;74342;-77
2024/02/18 02:35:46;;;;;;;;;;;;;;;4.81;100.00;101245.51;107989;1256;71524;-78
2024/02/18 02:38:13;;;;;;;;;;;;;;;4.82;100.00;101245.39;107942;1256;71239;-78
2024/02/18 02:40:40;;;;;;;;;;;;;;;4.81;100.00;101248.43;108129;1256;61107;-77
2024/02/18 02:43:07;;;;;;;;;;;;;;;4.81;100.00;101247.14;108482;1256;59327;-77
2024/02/18 02:45:34;;;;;;;;;;;;;;;4.81;100.00;101251.94;108476;1256;73409;-77
2024/02/18 02:48:02;;;;;;;;;;;;;;;4.84;100.00;101247.96;108314;1256;71371;-78
2024/02/18 02:50:29;;;;;;;;;;;;;;;4.85;100.00;101249.91;108015;1260;72745;-77
2024/02/18 02:52:55;;;;;;;;;;;;;;;4.91;100.00;101251.26;107884;1256;61862;-78
2024/02/18 02:55:22;;;;;;;;;;;;;;;4.93;100.00;101247.80;108040;1256;61147;-78
2024/02/18 02:57:51;;;;;;;;;;;;;;;4.90;100.00;101246.30;107910;1256;74706;-77
2024/02/18 03:00:18;;;;;;;;;;;;;;;4.89;100.00;101251.30;107880;1256;72563;-77
2024/02/18 03:02:45;;;;;;;;;;;;;;;4.92;100.00;101254.72;107962;1256;72599;-77
2024/02/18 03:05:12;;;;;;;;;;;;;;;4.95;100.00;101253.79;107945;1260;61039;-79
2024/02/18 03:07:39;;;;;;;;;;;;;;;4.97;100.00;101256.52;107946;1256;59943;-77
2024/02/18 03:10:06;;;;;;;;;;;;;;;4.98;100.00;101260.48;107943;1256;72775;-77
2024/02/18 03:12:34;;;;;;;;;;;;;;;5.00;100.00;101257.22;107991;1256;71581;-79
2024/02/18 03:15:01;;;;;;;;;;;;;;;5.05;100.00;101255.10;107955;1256;72488;-76
2024/02/18 03:17:28;;;;;;;;;;;;;;;5.11;100.00;101257.83;107903;1256;61819;-79
2024/02/18 03:19:58;;;;;;;;;;;;;;;5.14;100.00;101260.08;107930;1256;61331;-77
2024/02/18 03:22:25;;;;;;;;;;;;;;;5.15;100.00;101264.27;107755;1257;74012;-77
2024/02/18 03:24:52;;;;;;;;;;;;;;;5.17;100.00;101265.50;107992;1261;73898;-78
2024/02/18 03:27:19;;;;;;;;;;;;;;;5.16;100.00;101266.30;107991;1256;72491;-77
2024/02/18 03:29:47;;;;;;;;;;;;;;;5.15;100.00;101265.58;108083;1256;59679;-77
2024/02/18 03:32:14;;;;;;;;;;;;;;;5.14;100.00;101265.41;107948;1256;61423;-78
2024/02/18 03:34:41;;;;;;;;;;;;;;;5.15;100.00;101267.40;107989;1257;75957;-78
2024/02/18 03:37:08;;;;;;;;;;;;;;;5.15;100.00;101264.30;107932;1260;71208;-78
2024/02/18 03:39:35;;;;;;;;;;;;;;;5.15;100.00;101266.10;107928;1257;72348;-79
2024/02/18 03:42:02;;;;;;;;;;;;;;;5.15;100.00;101265.00;107931;1256;61825;-78
2024/02/18 03:44:29;;;;;;;;;;;;;;;5.16;100.00;101270.02;107960;1256;61141;-78
2024/02/18 03:46:55;;;;;;;;;;;;;;;5.16;100.00;101271.23;107819;1256;74535;-79
2024/02/18 03:49:23;;;;;;;;;;;;;;;5.15;100.00;101274.29;108057;1260;71269;-77
2024/02/18 03:51:51;;;;;;;;;;;;;;;5.15;100.00;101272.17;107920;1256;71306;-78
2024/02/18 03:54:18;;;;;;;;;;;;;;;5.15;100.00;101274.25;108016;1256;61221;-79
2024/02/18 03:56:45;;;;;;;;;;;;;;;5.10;100.00;101277.52;107998;1256;61120;-78
2024/02/18 03:59:15;;;;;;;;;;;;;;;5.06;100.00;101276.65;107928;1256;73991;-78
2024/02/18 04:01:42;;;;;;;;;;;;;;;5.02;100.00;101279.83;107969;1257;71414;-78
2024/02/18 04:04:09;;;;;;;;;;;;;;;4.98;100.00;101276.32;108021;1256;73922;-79
2024/02/18 04:06:37;;;;;;;;;;;;;;;4.98;100.00;101282.67;107973;1256;61020;-79
2024/02/18 04:09:03;;;;;;;;;;;;;;;5.01;100.00;101282.84;107983;1256;61189;-78
2024/02/18 04:11:30;;;;;;;;;;;;;;;5.02;100.00;101282.19;107940;1256;74398;-78
2024/02/18 04:13:57;;;;;;;;;;;;;;;5.03;100.00;101279.86;107885;1256;71347;-77
2024/02/18 04:16:27;;;;;;;;;;;;;;;5.03;100.00;101280.96;107942;1256;72145;-78
2024/02/18 04:18:54;;;;;;;;;;;;;;;5.02;100.00;101274.40;107977;1256;61085;-78
2024/02/18 04:21:23;;;;;;;;;;;;;;;5.02;100.00;101274.00;107983;1256;61215;-78
2024/02/18 04:23:50;;;;;;;;;;;;;;;5.03;100.00;101282.34;107969;1257;74344;-79
2024/02/18 04:26:17;;;;;;;;;;;;;;;5.15;100.00;101288.55;107876;1256;71169;-78
2024/02/18 04:28:44;;;;;;;;;;;;;;;5.27;100.00;101293.09;107924;1257;71207;-78
2024/02/18 04:31:11;;;;;;;;;;;;;;;5.33;100.00;101296.06;107989;1256;61254;-78
2024/02/18 04:33:37;;;;;;;;;;;;;;;5.35;100.00;101296.17;107951;1256;61203;-78
2024/02/18 04:36:05;;;;;;;;;;;;;;;5.39;100.00;101303.52;107882;1257;73631;-78
2024/02/18 04:38:32;;;;;;;;;;;;;;;5.46;100.00;101305.99;107984;1256;72718;-78
2024/02/18 04:40:58;;;;;;;;;;;;;;;5.43;100.00;101310.48;107976;1259;72730;-80
2024/02/18 04:43:25;;;;;;;;;;;;;;;5.44;100.00;101308.73;108035;1257;61039;-78
2024/02/18 04:45:52;;;;;;;;;;;;;;;5.48;100.00;101313.53;107952;1256;61172;-77
2024/02/18 04:48:20;;;;;;;;;;;;;;;5.54;100.00;101316.80;107990;1256;74448;-79
2024/02/18 04:50:47;;;;;;;;;;;;;;;5.60;100.00;101320.74;107666;1256;70979;-78
2024/02/18 04:53:15;;;;;;;;;;;;;;;5.64;100.00;101320.46;108106;1256;72709;-77
2024/02/18 04:55:41;;;;;;;;;;;;;;;5.70;100.00;101318.13;107949;1257;61182;-78
2024/02/18 04:58:08;;;;;;;;;;;;;;;5.75;100.00;101324.73;107978;1256;61142;-78
2024/02/18 05:00:36;;;;;;;;;;;;;;;5.79;100.00;101328.55;108031;1256;74964;-78
2024/02/18 05:03:03;;;;;;;;;;;;;;;5.84;100.00;101329.45;107684;1257;72507;-78
2024/02/18 05:05:30;;;;;;;;;;;;;;;5.90;100.00;101330.17;107911;1260;72471;-78
2024/02/18 05:07:57;;;;;;;;;;;;;;;5.94;100.00;101328.23;108010;1257;61874;-78
2024/02/18 05:10:24;;;;;;;;;;;;;;;5.97;100.00;101330.36;107816;1257;61250;-79
2024/02/18 05:12:50;;;;;;;;;;;;;;;6.00;100.00;101333.23;107977;1256;73411;-79
2024/02/18 05:15:18;;;;;;;;;;;;;;;6.02;100.00;101333.08;107863;1256;72727;-79
2024/02/18 05:17:45;;;;;;;;;;;;;;;6.06;100.00;101337.14;107930;1260;73062;-78
2024/02/18 05:20:14;;;;;;;;;;;;;;;6.09;100.00;101341.30;107962;1256;61071;-78
2024/02/18 05:22:41;;;;;;;;;;;;;;;6.11;100.00;101343.25;107900;1262;61134;-77
2024/02/18 05:25:09;;;;;;;;;;;;;;;6.12;100.00;101343.10;107873;1256;74728;-78
2024/02/18 05:27:35;;;;;;;;;;;;;;;6.14;100.00;101343.09;107988;1257;72761;-78
2024/02/18 05:30:03;;;;;;;;;;;;;;;6.16;100.00;101344.01;107844;1256;72510;-79
2024/02/18 05:32:30;;;;;;;;;;;;;;;6.20;100.00;101344.33;107879;1256;63154;-79
2024/02/18 05:34:57;;;;;;;;;;;;;;;6.25;100.00;101348.40;107930;1256;61114;-78
2024/02/18 05:37:24;;;;;;;;;;;;;;;6.29;100.00;101343.61;108022;1257;74536;-77
2024/02/18 05:39:51;;;;;;;;;;;;;;;6.32;100.00;101347.60;108042;1257;71453;-79
2024/02/18 05:42:18;;;;;;;;;;;;;;;6.35;100.00;101349.73;107709;1257;72492;-78
2024/02/18 05:44:46;;;;;;;;;;;;;;;6.36;100.00;101352.83;107861;1257;63383;-79
2024/02/18 05:47:13;;;;;;;;;;;;;;;6.38;100.00;101356.80;107966;1257;59020;-80
2024/02/18 05:49:40;;;;;;;;;;;;;;;6.39;100.00;101361.02;108009;1256;74528;-78
2024/02/18 05:52:10;;;;;;;;;;;;;;;6.40;100.00;101364.27;108030;1257;71998;-80
2024/02/18 05:54:38;;;;;;;;;;;;;;;6.41;100.00;101368.15;107952;1257;71533;-79
2024/02/18 05:57:06;;;;;;;;;;;;;;;6.45;100.00;101368.83;107917;1256;61889;-78
2024/02/18 05:59:33;;;;;;;;;;;;;;;6.48;100.00;101370.88;107882;1256;60182;-79
2024/02/18 06:02:01;;;;;;;;;;;;;;;6.50;100.00;101373.98;107930;1256;74476;-79
2024/02/18 06:04:28;;;;;;;;;;;;;;;6.53;100.00;101375.30;107992;1256;71602;-78
2024/02/18 06:06:57;;;;;;;;;;;;;;;6.57;100.00;101380.38;108046;1256;72684;-79
2024/02/18 06:09:24;;;;;;;;;;;;;;;6.61;100.00;101382.95;107953;1256;62062;-79
2024/02/18 06:11:51;;;;;;;;;;;;;;;6.62;100.00;101384.70;108039;1257;61251;-80
2024/02/18 06:14:21;;;;;;;;;;;;;;;6.62;100.00;101385.96;107983;1260;73933;-78
2024/02/18 06:16:48;;;;;;;;;;;;;;;6.63;100.00;101395.10;107945;1257;72835;-78
2024/02/18 06:19:15;;;;;;;;;;;;;;;6.65;100.00;101398.12;108015;1256;72460;-79
2024/02/18 06:21:44;;;;;;;;;;;;;;;6.67;100.00;101400.19;107975;1261;60685;-78
2024/02/18 06:24:12;;;;;;;;;;;;;;;6.68;100.00;101401.61;107708;1257;61333;-79
2024/02/18 06:26:40;;;;;;;;;;;;;;;6.68;100.00;101398.77;108013;1257;74141;-79
2024/02/18 06:29:07;;;;;;;;;;;;;;;6.67;100.00;101399.29;108007;1260;72850;-79
2024/02/18 06:31:34;;;;;;;;;;;;;;;6.68;100.00;101402.11;107991;1260;72489;-78
2024/02/18 06:34:00;;;;;;;;;;;;;;;6.71;100.00;101403.28;107980;1257;61865;-79
2024/02/18 06:36:28;;;;;;;;;;;;;;;6.74;100.00;101405.14;108031;1257;61152;-79
2024/02/18 06:38:55;;;;;;;;;;;;;;;6.77;100.00;101404.19;108015;1260;74704;-77
2024/02/18 06:41:21;;;;;;;;;;;;;;;6.80;100.00;101405.93;108048;1260;72524;-77
2024/02/18 06:43:48;;;;;;;;;;;;;;;6.82;100.00;101409.04;107967;1257;72474;-78
2024/02/18 06:46:14;;;;;;;;;;;;;;;6.83;100.00;101412.66;107958;1256;61214;-78
2024/02/18 06:48:41;;;;;;;;;;;;;;;6.84;100.00;101415.44;107987;1257;61115;-78
2024/02/18 06:51:08;;;;;;;;;;;;;;;6.83;100.00;101409.89;107867;1257;74518;-79
2024/02/18 06:53:35;;;;;;;;;;;;;;;6.83;100.00;101411.16;107949;1258;71443;-77
2024/02/18 06:56:03;;;;;;;;;;;;;;;6.81;100.00;101414.67;107970;1256;72780;-77
2024/02/18 06:58:30;;;;;;;;;;;;;;;6.79;100.00;101416.20;107728;1257;62053;-78
2024/02/18 07:00:58;;;;;;;;;;;;;;;6.78;100.00;101416.16;107980;1257;61292;-78
2024/02/18 07:03:29;;;;;;;;;;;;;;;6.78;100.00;101416.98;108011;1256;74666;-79
2024/02/18 07:05:55;;;;;;;;;;;;;;;6.80;100.00;101417.42;107941;1257;71337;-78
2024/02/18 07:08:23;;;;;;;;;;;;;;;6.81;100.00;101419.61;107841;1262;72486;-78
2024/02/18 07:10:50;;;;;;;;;;;;;;;6.84;100.00;101427.86;108020;1257;61799;-79
2024/02/18 07:13:19;;;;;;;;;;;;;;;6.85;100.00;101428.30;107954;1257;61100;-78
2024/02/18 07:15:46;;;;;;;;;;;;;;;6.88;100.00;101432.38;107984;1260;73310;-79
2024/02/18 07:18:13;;;;;;;;;;;;;;;6.90;100.00;101429.59;107961;1260;71460;-78
2024/02/18 07:20:41;;;;;;;;;;;;;;;6.93;100.00;101431.55;107944;1257;73076;-79
2024/02/18 07:23:11;;;;;;;;;;;;;;;6.96;100.00;101432.71;107906;1256;61686;-78
2024/02/18 07:25:40;;;;;;;;;;;;;;;6.99;100.00;101432.16;107868;1257;61222;-78
2024/02/18 07:28:07;;;;;;;;;;;;;;;7.01;100.00;101432.60;107981;1257;74554;-78
2024/02/18 07:30:34;;;;;;;;;;;;;;;7.02;100.00;101434.20;107977;1261;72556;-78
2024/02/18 07:33:05;;;;;;;;;;;;;;;7.03;100.00;101442.31;107933;1260;73749;-78
2024/02/18 07:35:35;;;;;;;;;;;;;;;7.01;100.00;101438.79;107994;1256;62069;-78
2024/02/18 07:38:11;;;;;;;;;;;;;;;6.99;100.00;101442.63;107989;1255;61164;-78
2024/02/18 07:40:48;;;;;;;;;;;;;;;6.97;100.00;101447.41;107947;1260;75032;-78
2024/02/18 07:43:18;;;;;;;;;;;;;;;6.95;100.00;101452.34;108010;1257;74949;-79
2024/02/18 07:46:01;;;;;;;;;;;;;;;6.93;100.00;101455.29;108049;1260;72435;-81
2024/02/18 07:48:36;;;;;;;;;;;;;;;6.90;100.00;101453.86;108016;1257;61097;-78
2024/02/18 07:51:10;;;;;;;;;;;;;;;6.92;100.00;101452.30;107998;1257;61122;-78
2024/02/18 07:53:47;;;;;;;;;;;;;;;6.98;100.00;101457.10;108045;1259;73547;-79
2024/02/18 07:56:32;;;;;;;;;;;;;;;7.04;100.00;101458.41;107909;1257;72421;-76
2024/02/18 07:59:18;;;;;;;;;;;;;;;7.07;100.00;101462.78;107805;1257;72698;-77
2024/02/18 08:01:54;;;;;;;;;;;;;;;7.09;100.00;101467.39;107927;1257;61912;-77
2024/02/18 08:04:31;;;;;;;;;;;;;;;7.07;100.00;101470.38;107867;1261;61158;-78
2024/02/18 08:07:10;;;;;;;;;;;;;;;7.08;100.00;101474.95;107823;1262;74657;-79
2024/02/18 08:09:51;;;;;;;;;;;;;;;7.09;100.00;101479.00;107843;1258;72742;-80
2024/02/18 08:12:21;;;;;;;;;;;;;;;7.13;100.00;101478.62;107898;1261;72729;-79
2024/02/18 08:14:58;;;;;;;;;;;;;;;7.19;100.00;101482.80;107925;1262;61892;-77
2024/02/18 08:17:25;;;;;;;;;;;;;;;7.23;100.00;101485.39;107874;1257;60008;-78
2024/02/18 08:19:56;;;;;;;;;;;;;;;7.25;100.00;101483.23;107936;1261;73331;-78
2024/02/18 08:22:24;;;;;;;;;;;;;;;7.28;100.00;101489.14;107863;1257;72572;-78
2024/02/18 08:24:50;;;;;;;;;;;;;;;7.28;100.00;101489.51;107867;1261;72807;-78
2024/02/18 08:27:17;;;;;;;;;;;;;;;7.28;100.00;101485.79;107854;1258;61162;-78
2024/02/18 08:29:45;;;;;;;;;;;;;;;7.30;100.00;101490.67;107914;1262;61265;-78
2024/02/18 08:32:11;;;;;;;;;;;;;;;7.32;100.00;101490.38;107923;1262;74696;-77
2024/02/18 08:34:46;;;;;;;;;;;;;;;7.31;100.00;101497.95;107886;1257;72866;-81
2024/02/18 08:37:14;;;;;;;;;;;;;;;7.27;100.00;101511.22;108006;1257;71285;-79
2024/02/18 08:39:41;;;;;;;;;;;;;;;7.12;100.00;101524.06;108010;1258;61217;-78
2024/02/18 08:42:11;;;;;;;;;;;;;;;6.81;100.00;101524.69;108031;1258;61256;-79
2024/02/18 08:44:38;;;;;;;;;;;;;;;6.43;100.00;101543.69;108306;1256;74558;-78
2024/02/18 08:47:05;;;;;;;;;;;;;;;6.05;100.00;101556.33;108444;1257;71472;-79
2024/02/18 08:49:47;;;;;;;;;;;;;;;5.65;100.00;101559.52;108339;1256;73175;-77
2024/02/18 08:52:22;;;;;;;;;;;;;;;5.30;100.00;101561.48;108118;1258;61676;-78
2024/02/18 08:54:51;;;;;;;;;;;;;;;5.12;100.00;101567.70;108054;1256;61125;-78
2024/02/18 08:57:19;;;;;;;;;;;;;;;4.97;100.00;101571.86;107981;1258;73324;-78
2024/02/18 08:59:48;;;;;;;;;;;;;;;4.89;100.00;101574.30;107810;1257;71795;-79
2024/02/18 09:02:16;;;;;;;;;;;;;;;4.82;100.00;101587.53;107947;1257;72534;-78
2024/02/18 09:04:43;;;;;;;;;;;;;;;4.77;100.00;101592.62;107927;1259;61129;-78
2024/02/18 09:07:10;;;;;;;;;;;;;;;4.73;100.00;101591.44;107999;1257;61256;-79
2024/02/18 09:09:36;;;;;;;;;;;;;;;4.69;100.00;101595.73;107986;1256;73436;-78
2024/02/18 09:12:05;;;;;;;;;;;;;;;4.67;100.00;101596.56;108081;1258;72861;-78
2024/02/18 09:14:32;;;;;;;;;;;;;;;4.63;100.00;101600.48;107996;1257;72511;-78
2024/02/18 09:16:59;;;;;;;;;;;;;;;4.62;100.00;101604.96;107993;1260;61125;-78
2024/02/18 09:19:25;;;;;;;;;;;;;;;4.61;100.00;101611.16;107818;1257;61712;-79
2024/02/18 09:21:52;;;;;;;;;;;;;;;4.62;100.00;101615.30;107926;1257;73128;-79
2024/02/18 09:24:19;;;;;;;;;;;;;;;4.60;100.00;101614.11;107983;1257;72144;-79
2024/02/18 09:26:46;;;;;;;;;;;;;;;4.57;100.00;101625.13;107946;1257;72733;-77
2024/02/18 09:29:15;;;;;;;;;;;;;;;4.52;100.00;101623.20;107964;1257;61256;-78
2024/02/18 09:31:42;;;;;;;;;;;;;;;4.41;100.00;101625.02;107979;1258;61307;-79
2024/02/18 09:34:09;;;;;;;;;;;;;;;4.29;100.00;101637.36;108013;1257;74720;-78
2024/02/18 09:36:36;;;;;;;;;;;;;;;4.18;100.00;101650.95;107965;1257;71318;-79
2024/02/18 09:39:05;;;;;;;;;;;;;;;4.09;100.00;101648.73;108031;1260;72492;-79
2024/02/18 09:41:33;;;;;;;;;;;;;;;4.04;100.00;101646.13;108015;1256;61581;-79
2024/02/18 09:44:05;;;;;;;;;;;;;;;4.04;100.00;101650.92;108073;1257;61124;-79
2024/02/18 09:46:38;;;;;;;;;;;;;;;4.04;100.00;101646.77;107973;1257;74716;-79
2024/02/18 09:49:08;;;;;;;;;;;;;;;4.07;100.00;101648.39;107820;1263;72562;-78
2024/02/18 09:51:35;;;;;;;;;;;;;;;4.08;100.00;101647.77;108008;1257;72615;-79
2024/02/18 09:54:03;;;;;;;;;;;;;;;4.09;100.00;101646.71;107762;1260;290725;-79
2024/02/18 09:56:31;;;;;;;;;;;;;;;4.12;100.00;101644.39;107987;1260;61352;-76
2024/02/18 09:58:57;;;;;;;;;;;;;;;4.14;100.00;101638.73;108012;1260;74709;-78
2024/02/18 10:01:24;;;;;;;;;;;;;;;4.15;100.00;101649.51;107902;1257;72383;-79
2024/02/18 10:03:51;;;;;;;;;;;;;;;4.15;100.00;101648.81;107887;1257;71094;-79
2024/02/18 10:06:19;;;;;;;;;;;;;;;4.13;100.00;101643.23;107855;1257;61226;-78
2024/02/18 10:08:54;;;;;;;;;;;;;;;4.11;100.00;101643.34;108001;1257;61148;-78
2024/02/18 10:11:21;;;;;;;;;;;;;;;4.10;100.00;101649.23;108015;1257;73274;-77
2024/02/18 10:13:48;;;;;;;;;;;;;;;4.12;100.00;101652.77;107982;1256;72698;-79
2024/02/18 10:16:15;;;;;;;;;;;;;;;4.12;100.00;101649.95;108009;1257;72470;-77
2024/02/18 10:18:43;;;;;;;;;;;;;;;4.05;100.00;101653.76;108003;1260;61125;-78
2024/02/18 10:21:14;;;;;;;;;;;;;;;3.96;100.00;101652.64;108029;1256;59332;-78
2024/02/18 10:23:41;;;;;;;;;;;;;;;3.90;100.00;101663.31;107959;1257;74609;-79
2024/02/18 10:26:11;;;;;;;;;;;;;;;3.87;100.00;101661.27;107858;1257;72847;-78
2024/02/18 10:28:40;;;;;;;;;;;;;;;3.85;100.00;101667.59;107972;1257;72795;-78
2024/02/18 10:31:10;;;;;;;;;;;;;;;3.86;100.00;101665.78;108010;1256;61337;-78
2024/02/18 10:33:38;;;;;;;;;;;;;;;3.88;100.00;101665.13;107921;1257;61164;-77
2024/02/18 10:36:11;;;;;;;;;;;;;;;3.93;100.00;101665.96;107906;1257;74712;-79
2024/02/18 10:38:43;;;;;;;;;;;;;;;3.98;100.00;101658.31;107928;1257;72740;-79
2024/02/18 10:41:15;;;;;;;;;;;;;;;4.01;100.00;101658.80;108033;1257;71646;-78
2024/02/18 10:43:49;;;;;;;;;;;;;;;4.06;100.00;101660.18;107957;1257;61064;-77
2024/02/18 10:46:20;;;;;;;;;;;;;;;4.10;100.00;101670.24;108070;1256;60095;-78
2024/02/18 10:48:52;;;;;;;;;;;;;;;4.15;100.00;101661.83;108020;1258;75909;-79
2024/02/18 10:51:27;;;;;;;;;;;;;;;4.15;100.00;101663.45;108056;1256;72803;-79
2024/02/18 10:54:04;;;;;;;;;;;;;;;4.17;100.00;101665.19;107819;1257;72490;-79
2024/02/18 10:56:31;;;;;;;;;;;;;;;4.18;100.00;101669.56;108015;1257;61173;-79
2024/02/18 10:59:01;;;;;;;;;;;;;;;4.19;100.00;101673.84;108008;1257;61269;-79
2024/02/18 11:01:30;;;;;;;;;;;;;;;4.20;100.00;101678.23;107848;1256;74785;-79
2024/02/18 11:04:03;;;;;;;;;;;;;;;4.15;100.00;101674.60;108045;1256;70797;-79
2024/02/18 11:06:39;;;;;;;;;;;;;;;4.08;100.00;101681.89;107805;1256;71519;-78
2024/02/18 11:09:17;;;;;;;;;;;;;;;4.05;100.00;101676.09;107970;1257;61229;-78
2024/02/18 11:11:52;;;;;;;;;;;;;;;4.05;100.00;101683.39;108143;1256;61144;-78
2024/02/18 11:14:22;;;;;;;;;;;;;;;4.06;100.00;101683.28;107831;1257;74940;-78
2024/02/18 11:16:54;;;;;;;;;;;;;;;4.05;100.00;101687.39;107974;1257;72676;-78
2024/02/18 11:19:33;;;;;;;;;;;;;;;4.03;100.00;101691.51;107820;1257;72351;-77
2024/02/18 11:22:03;;;;;;;;;;;;;;;4.01;100.00;101698.94;107955;1256;60185;-78
2024/02/18 11:24:38;;;;;;;;;;;;;;;3.98;100.00;101699.99;107902;1257;60772;-79
2024/02/18 11:27:12;;;;;;;;;;;;;;;3.95;100.00;101709.20;108016;1260;74679;-78
2024/02/18 11:29:52;;;;;;;;;;;;;;;3.89;100.00;101702.29;107867;1257;73726;-79
2024/02/18 11:32:30;;;;;;;;;;;;;;;3.84;100.00;101710.95;107826;1256;73198;-79
2024/02/18 11:35:10;;;;;;;;;;;;;;;3.78;100.00;101708.45;107927;1257;61353;-78
2024/02/18 11:37:43;;;;;;;;;;;;;;;3.73;100.00;101708.10;107939;1257;61141;-78
2024/02/18 11:40:20;;;;;;;;;;;;;;;3.70;100.00;101710.05;107839;1257;74525;-77
2024/02/18 11:42:55;;;;;;;;;;;;;;;3.66;100.00;101714.10;107915;1257;72776;-78
2024/02/18 11:45:36;;;;;;;;;;;;;;;3.63;100.00;101714.84;107959;1257;73111;-80
2024/02/18 11:48:08;;;;;;;;;;;;;;;3.62;100.00;101720.27;107921;1256;59998;-77
2024/02/18 11:50:44;;;;;;;;;;;;;;;3.60;100.00;101718.41;107857;1256;61084;-79
2024/02/18 11:53:20;;;;;;;;;;;;;;;3.61;100.00;101713.14;107977;1256;74680;-78
2024/02/18 11:55:57;;;;;;;;;;;;;;;3.65;100.00;101712.83;107954;1257;74029;-78
2024/02/18 11:58:44;;;;;;;;;;;;;;;3.66;100.00;101714.27;107875;1256;72907;-80
2024/02/18 12:01:19;;;;;;;;;;;;;;;3.67;100.00;101714.96;108007;1256;61471;-78
2024/02/18 12:03:51;;;;;;;;;;;;;;;3.68;100.00;101720.19;107930;1257;61154;-78
2024/02/18 12:06:26;;;;;;;;;;;;;;;3.69;100.00;101722.23;107897;1256;74624;-78
2024/02/18 12:08:54;;;;;;;;;;;;;;;3.68;100.00;101721.96;107809;1256;72702;-79
2024/02/18 12:11:22;;;;;;;;;;;;;;;3.68;100.00;101721.44;107949;1257;70828;-79
2024/02/18 12:13:56;;;;;;;;;;;;;;;3.70;100.00;101721.59;107957;1257;61251;-77
2024/02/18 12:16:27;;;;;;;;;;;;;;;3.71;100.00;101722.98;107988;1257;60127;-77
2024/02/18 12:19:04;;;;;;;;;;;;;;;3.71;100.00;101728.88;108043;1256;75971;-78
2024/02/18 12:21:31;;;;;;;;;;;;;;;3.67;100.00;101727.53;107833;1256;72089;-77
2024/02/18 12:24:01;;;;;;;;;;;;;;;3.64;100.00;101727.92;107891;1256;72764;-78
2024/02/18 12:26:31;;;;;;;;;;;;;;;3.62;100.00;101729.18;107944;1257;61506;-78
2024/02/18 12:29:02;;;;;;;;;;;;;;;3.63;100.00;101730.65;107873;1256;61213;-78
2024/02/18 12:31:34;;;;;;;;;;;;;;;3.63;100.00;101728.45;107947;1257;74630;-78
2024/02/18 12:34:02;;;;;;;;;;;;;;;3.62;100.00;101726.44;107910;1256;73697;-78